Time;durP1;ratioP1;P1;durP2;ratioP2;P2;SDS_P1;SDS_P2;PMS_P1;PMS_P2;Temp;Humidity;BMP_temperature;BMP_pressure;BME280_temperature;BME280_humidity;BME280_pressure;Samples;Min_cycle;Max_cycle;Signal;HPM_P1;HPM_P2
2021/06/26 00:01:12;;;;;;;22.85;6.35;;;;;;;29.17;45.97;100765.00;5012733;28;20060;-64
2021/06/26 00:03:40;;;;;;;13.70;5.60;;;;;;;29.13;46.10;100763.44;5015874;28;20038;-64
2021/06/26 00:06:07;;;;;;;13.82;5.28;;;;;;;29.07;46.42;100766.53;5011164;28;20130;-65
2021/06/26 00:08:35;;;;;;;10.57;5.20;;;;;;;29.06;46.18;100756.63;5011769;28;20121;-65
2021/06/26 00:11:04;;;;;;;13.38;5.97;;;;;;;29.09;46.24;100754.56;5012220;28;20034;-64
2021/06/26 00:13:32;;;;;;;11.80;5.82;;;;;;;29.04;46.24;100751.28;5011639;28;20066;-64
2021/06/26 00:15:59;;;;;;;17.70;5.68;;;;;;;28.98;46.53;100745.31;5011998;28;20061;-65
2021/06/26 00:18:26;;;;;;;20.73;5.80;;;;;;;29.02;46.33;100753.19;5015602;28;20382;-65
2021/06/26 00:20:54;;;;;;;16.00;5.88;;;;;;;29.02;46.40;100753.19;5016582;28;20137;-65
2021/06/26 00:23:22;;;;;;;13.55;5.97;;;;;;;29.02;46.26;100749.59;5011560;28;20140;-65
2021/06/26 00:25:49;;;;;;;14.18;6.20;;;;;;;29.03;46.27;100737.75;5011508;28;20041;-65
2021/06/26 00:28:18;;;;;;;14.43;5.85;;;;;;;28.99;46.42;100731.66;5011782;28;20038;-65
2021/06/26 00:30:45;;;;;;;17.90;6.22;;;;;;;29.00;46.47;100727.09;5011620;28;20423;-65
2021/06/26 00:33:13;;;;;;;14.80;5.75;;;;;;;29.02;46.21;100730.56;5011619;28;20069;-65
2021/06/26 00:35:41;;;;;;;17.95;5.88;;;;;;;28.99;46.30;100730.78;5011242;28;20409;-64
2021/06/26 00:38:08;;;;;;;15.13;6.13;;;;;;;28.98;46.21;100726.28;5013912;28;20120;-65
2021/06/26 00:40:36;;;;;;;14.48;6.05;;;;;;;28.95;46.26;100726.50;5030758;28;20072;-64
2021/06/26 00:43:03;;;;;;;14.43;5.32;;;;;;;28.96;46.18;100730.94;5030649;28;20129;-65
2021/06/26 00:45:32;;;;;;;13.05;5.55;;;;;;;28.94;46.16;100722.91;5030823;28;20041;-65
2021/06/26 00:48:00;;;;;;;17.60;7.05;;;;;;;28.91;46.13;100717.66;5030623;28;20116;-65
2021/06/26 00:50:30;;;;;;;12.25;5.20;;;;;;;28.89;46.23;100725.00;5030614;28;20512;-64
2021/06/26 00:52:57;;;;;;;13.50;5.03;;;;;;;28.85;46.16;100723.47;5029867;28;20631;-65
2021/06/26 00:55:25;;;;;;;13.00;5.32;;;;;;;28.89;46.12;100717.72;5013144;28;20133;-65
2021/06/26 00:57:56;;;;;;;14.57;5.90;;;;;;;28.96;45.79;100730.94;5030911;28;20109;-65
2021/06/26 01:00:25;;;;;;;15.93;5.30;;;;;;;28.92;45.85;100733.88;5030756;28;20033;-64
2021/06/26 01:02:54;;;;;;;12.25;5.68;;;;;;;28.90;46.08;100722.19;5012362;28;20805;-64
2021/06/26 01:05:22;;;;;;;15.75;5.47;;;;;;;28.89;46.06;100734.03;5030570;28;20037;-65
2021/06/26 01:07:50;;;;;;;14.68;5.53;;;;;;;28.89;45.94;100735.88;5030422;28;20037;-64
2021/06/26 01:10:17;;;;;;;14.43;5.57;;;;;;;28.85;46.11;100735.22;5030097;28;20125;-64
2021/06/26 01:12:45;;;;;;;15.13;5.75;;;;;;;28.79;46.22;100730.16;5029839;28;20039;-65
2021/06/26 01:15:17;;;;;;;17.67;5.40;;;;;;;28.79;46.18;100730.16;5030238;28;20040;-65
2021/06/26 01:17:45;;;;;;;12.70;5.40;;;;;;;28.78;46.22;100731.09;5030063;28;20179;-64
2021/06/26 01:20:16;;;;;;;18.15;6.32;;;;;;;28.83;46.24;100733.53;5030888;28;20042;-65
2021/06/26 01:22:47;;;;;;;12.45;6.18;;;;;;;28.79;46.33;100734.69;5029571;28;20493;-65
2021/06/26 01:25:16;;;;;;;17.85;6.85;;;;;;;28.75;46.32;100727.72;5030300;28;20037;-65
2021/06/26 01:27:45;;;;;;;12.57;5.95;;;;;;;28.65;46.60;100735.50;5029832;28;20494;-65
2021/06/26 01:30:15;;;;;;;15.68;5.85;;;;;;;28.67;46.62;100728.13;5029432;28;20378;-64
2021/06/26 01:32:42;;;;;;;13.52;6.35;;;;;;;28.67;46.64;100724.53;5030260;28;20057;-64
2021/06/26 01:35:11;;;;;;;13.68;6.97;;;;;;;28.60;46.72;100747.63;5030226;28;20049;-64
2021/06/26 01:37:39;;;;;;;15.32;6.13;;;;;;;28.58;46.98;100739.53;5029951;28;20048;-64
2021/06/26 01:40:15;;;;;;;13.25;5.45;;;;;;;28.60;46.96;100729.47;5030259;28;20033;-65
2021/06/26 01:42:42;;;;;;;14.93;5.30;;;;;;;28.45;47.12;100738.50;5030255;28;20041;-64
2021/06/26 01:45:10;;;;;;;12.93;6.10;;;;;;;28.42;47.33;100728.69;5029409;28;20121;-65
2021/06/26 01:47:38;;;;;;;14.55;5.55;;;;;;;28.48;47.07;100730.19;5029626;28;20393;-64
2021/06/26 01:50:07;;;;;;;15.27;5.35;;;;;;;28.52;46.95;100719.06;5029246;28;20106;-64
2021/06/26 01:52:35;;;;;;;12.57;5.43;;;;;;;28.55;46.84;100731.59;5029599;28;20038;-64
2021/06/26 01:55:02;;;;;;;11.70;5.60;;;;;;;28.60;46.81;100723.16;5029349;28;20120;-64
2021/06/26 01:57:31;;;;;;;15.00;5.55;;;;;;;28.59;46.87;100735.88;5028503;28;20030;-64
2021/06/26 01:59:59;;;;;;;19.25;5.82;;;;;;;28.57;46.95;100735.06;5029851;28;20095;-65
2021/06/26 02:02:26;;;;;;;9.88;5.13;;;;;;;28.53;47.11;100731.69;5029715;28;20057;-64
2021/06/26 02:04:53;;;;;;;12.95;6.20;;;;;;;28.47;47.14;100739.31;5028821;28;20047;-65
2021/06/26 02:07:22;;;;;;;11.98;5.50;;;;;;;28.47;47.26;100731.16;5029754;28;20037;-65
2021/06/26 02:09:49;;;;;;;17.92;5.80;;;;;;;28.46;47.33;100738.44;5029686;28;20497;-65
2021/06/26 02:12:17;;;;;;;12.57;5.63;;;;;;;28.39;47.34;100731.59;5029031;28;20025;-65
2021/06/26 02:14:46;;;;;;;14.35;5.75;;;;;;;28.40;47.40;100727.94;5029331;28;20091;-65
2021/06/26 02:17:14;;;;;;;18.40;6.95;;;;;;;28.43;46.99;100721.41;5029685;28;20033;-65
2021/06/26 02:19:41;;;;;;;15.13;5.80;;;;;;;28.45;46.98;100714.06;5013338;28;20123;-64
2021/06/26 02:22:10;;;;;;;15.25;5.50;;;;;;;28.47;47.08;100721.16;5029381;28;20447;-65
2021/06/26 02:24:37;;;;;;;15.98;6.05;;;;;;;28.46;47.08;100711.28;5029130;28;20044;-65
2021/06/26 02:27:05;;;;;;;19.17;7.05;;;;;;;28.44;47.04;100717.75;5028599;28;20069;-64
2021/06/26 02:29:32;;;;;;;15.68;5.20;;;;;;;28.42;47.28;100720.53;5028672;28;20047;-64
2021/06/26 02:32:01;;;;;;;16.65;5.95;;;;;;;28.43;46.94;100725.03;5029163;28;20033;-65
2021/06/26 02:34:28;;;;;;;9.48;5.00;;;;;;;28.44;47.18;100717.75;5028682;28;20072;-64
2021/06/26 02:36:56;;;;;;;15.00;5.15;;;;;;;28.43;46.99;100714.16;5028954;28;20124;-65
2021/06/26 02:39:24;;;;;;;13.85;5.68;;;;;;;28.41;47.07;100716.09;5028710;28;20055;-65
2021/06/26 02:41:52;;;;;;;14.52;6.20;;;;;;;28.39;47.30;100711.72;5028898;28;20072;-64
2021/06/26 02:44:19;;;;;;;21.67;5.68;;;;;;;28.36;47.30;100722.75;5027928;28;20073;-64
2021/06/26 02:46:49;;;;;;;14.52;5.35;;;;;;;28.33;47.50;100721.09;5028455;28;20061;-65
2021/06/26 02:49:18;;;;;;;14.80;5.68;;;;;;;28.33;47.32;100717.50;5028827;28;20489;-65
2021/06/26 02:51:46;;;;;;;16.50;6.38;;;;;;;28.31;47.40;100714.88;5028589;28;20061;-65
2021/06/26 02:54:14;;;;;;;16.48;6.03;;;;;;;28.32;47.26;100716.63;5028747;28;20117;-65
2021/06/26 02:56:42;;;;;;;15.82;5.20;;;;;;;28.31;47.26;100708.56;5028880;28;20516;-64
2021/06/26 02:59:09;;;;;;;15.73;6.20;;;;;;;28.32;47.17;100716.63;5028724;28;20041;-64
2021/06/26 03:01:36;;;;;;;9.40;4.95;;;;;;;28.29;47.18;100715.97;5028497;28;20061;-64
2021/06/26 03:04:04;;;;;;;12.35;5.50;;;;;;;28.21;47.66;100716.41;5028512;28;20409;-64
2021/06/26 03:06:33;;;;;;;12.50;5.90;;;;;;;28.17;47.80;100711.22;5028598;28;20124;-64
2021/06/26 03:09:00;;;;;;;17.55;6.32;;;;;;;28.12;47.75;100711.44;5028356;28;20037;-65
2021/06/26 03:11:28;;;;;;;12.98;6.22;;;;;;;28.07;47.96;100721.72;5028239;28;20040;-64
2021/06/26 03:13:56;;;;;;;14.73;6.63;;;;;;;28.05;48.02;100712.78;5028591;28;20041;-64
2021/06/26 03:16:23;;;;;;;15.60;5.47;;;;;;;28.06;48.11;100711.81;5027581;28;20569;-65
2021/06/26 03:18:50;;;;;;;11.90;5.97;;;;;;;28.10;48.11;100716.97;5031429;28;20073;-65
2021/06/26 03:21:18;;;;;;;13.15;5.60;;;;;;;28.13;47.97;100715.94;5032568;28;20470;-64
2021/06/26 03:23:47;;;;;;;15.68;6.45;;;;;;;28.17;47.88;100720.22;5032304;28;20037;-64
2021/06/26 03:26:15;;;;;;;14.07;5.80;;;;;;;28.17;47.99;100738.38;5032797;28;20033;-64
2021/06/26 03:28:44;;;;;;;13.52;6.28;;;;;;;28.18;48.16;100726.53;5032824;28;20129;-64
2021/06/26 03:31:12;;;;;;;11.25;5.68;;;;;;;28.14;48.17;100723.16;5032232;28;20037;-64
2021/06/26 03:33:40;;;;;;;18.20;5.75;;;;;;;28.14;48.19;100723.16;5012576;28;20406;-65
2021/06/26 03:36:08;;;;;;;14.98;6.47;;;;;;;28.23;48.16;100730.75;5012700;28;20557;-64
2021/06/26 03:38:35;;;;;;;16.77;6.32;;;;;;;28.28;48.20;100725.94;5012668;28;20107;-65
2021/06/26 03:41:04;;;;;;;11.57;6.00;;;;;;;28.37;48.05;100727.22;5011503;28;20488;-65
2021/06/26 03:43:32;;;;;;;12.77;5.88;;;;;;;28.41;47.90;100732.41;5012217;28;20128;-65
2021/06/26 03:45:59;;;;;;;14.85;5.93;;;;;;;28.47;47.94;100729.31;5012518;28;20114;-65
2021/06/26 03:48:26;;;;;;;14.23;5.90;;;;;;;28.53;48.05;100734.41;5012539;28;20057;-64
2021/06/26 03:50:56;;;;;;;14.30;5.40;;;;;;;28.62;47.99;100729.38;5011875;28;20049;-65
2021/06/26 03:53:23;;;;;;;16.70;5.95;;;;;;;28.73;48.04;100732.31;5011949;28;20030;-65
2021/06/26 03:55:53;;;;;;;14.18;5.70;;;;;;;28.79;47.71;100727.44;5011493;28;20050;-64
2021/06/26 03:58:24;;;;;;;12.15;5.85;;;;;;;28.88;47.48;100731.44;5011951;28;20053;-64
2021/06/26 04:00:51;;;;;;;12.43;5.43;;;;;;;29.00;47.17;100736.13;5012312;28;20036;-64
2021/06/26 04:03:19;;;;;;;10.07;5.13;;;;;;;29.20;47.50;100734.91;5011576;28;20512;-65
2021/06/26 04:05:47;;;;;;;14.20;5.75;;;;;;;29.34;47.63;100736.78;5011803;28;20030;-65
2021/06/26 04:08:14;;;;;;;11.10;5.15;;;;;;;29.45;47.56;100742.41;5012508;28;20455;-65
2021/06/26 04:10:43;;;;;;;16.38;5.50;;;;;;;29.60;47.58;100742.31;5031567;28;20612;-64
2021/06/26 04:13:11;;;;;;;13.45;4.90;;;;;;;29.79;47.69;100742.03;4994774;28;20068;-65
2021/06/26 04:15:40;;;;;;;16.38;6.38;;;;;;;29.99;47.35;100744.38;5011627;28;20211;-64
2021/06/26 04:18:08;;;;;;;14.38;5.93;;;;;;;30.11;47.24;100734.50;5011515;28;20121;-65
2021/06/26 04:20:35;;;;;;;17.13;5.85;;;;;;;30.27;47.00;100739.78;5011841;28;20052;-65
2021/06/26 04:23:03;;;;;;;13.20;5.80;;;;;;;30.38;46.59;100740.84;5011753;28;20149;-64
2021/06/26 04:25:31;;;;;;;11.25;5.18;;;;;;;30.54;46.50;100743.44;5011391;28;20042;-64
2021/06/26 04:28:06;;;;;;;11.13;5.32;;;;;;;30.77;46.51;100745.47;4993136;28;20494;-65
2021/06/26 04:30:33;;;;;;;19.83;5.70;;;;;;;30.98;46.41;100747.69;5011078;28;20049;-65
2021/06/26 04:33:03;;;;;;;16.08;5.65;;;;;;;31.19;45.75;100747.09;5011421;28;20045;-65
2021/06/26 04:35:31;;;;;;;11.68;5.55;;;;;;;31.39;44.86;100748.41;5011591;28;20557;-65
2021/06/26 04:37:59;;;;;;;16.67;5.45;;;;;;;31.58;44.47;100757.00;5011389;28;20046;-65
2021/06/26 04:40:26;;;;;;;12.68;5.30;;;;;;;31.76;44.17;100754.00;5011169;28;20121;-64
2021/06/26 04:42:54;;;;;;;11.13;4.78;;;;;;;31.91;44.12;100756.47;5011462;28;20040;-65
2021/06/26 04:45:22;;;;;;;14.70;5.25;;;;;;;32.13;43.73;100763.94;5010736;28;20137;-64
2021/06/26 04:47:49;;;;;;;12.63;4.38;;;;;;;32.34;43.36;100762.38;5010560;28;20034;-65
2021/06/26 04:50:19;;;;;;;57.60;8.48;;;;;;;32.58;42.58;100762.38;5010868;28;20045;-65
2021/06/26 04:52:47;;;;;;;12.95;5.28;;;;;;;32.82;42.37;100770.63;5010439;28;20045;-65
2021/06/26 04:55:15;;;;;;;11.05;4.60;;;;;;;33.03;41.74;100763.47;5011436;28;20046;-65
2021/06/26 04:57:43;;;;;;;34.05;8.50;;;;;;;33.30;41.03;100770.53;5030866;28;20042;-65
2021/06/26 05:00:12;;;;;;;9.02;4.28;;;;;;;33.66;40.38;100772.22;5030499;28;20037;-65
2021/06/26 05:02:40;;;;;;;15.43;5.10;;;;;;;33.98;39.40;100773.22;5030707;28;20124;-65
2021/06/26 05:05:08;;;;;;;14.68;4.45;;;;;;;34.29;38.23;100777.94;5018798;28;20454;-65
2021/06/26 05:07:38;;;;;;;14.48;4.38;;;;;;;34.62;37.00;100776.09;5008115;28;20069;-65
2021/06/26 05:10:06;;;;;;;12.00;4.32;;;;;;;34.91;36.69;100779.16;5010714;28;20121;-65
2021/06/26 05:12:33;;;;;;;13.65;4.30;;;;;;;35.16;36.24;100768.66;5010136;28;20048;-65
2021/06/26 05:15:01;;;;;;;15.00;4.63;;;;;;;35.32;35.81;100762.72;5010547;28;20030;-65
2021/06/26 05:17:29;;;;;;;16.02;4.53;;;;;;;35.49;34.99;100775.84;5010821;28;20524;-65
2021/06/26 05:19:56;;;;;;;15.00;5.13;;;;;;;35.72;34.40;100770.19;5009491;28;20124;-65
2021/06/26 05:22:24;;;;;;;16.23;4.38;;;;;;;35.97;34.26;100777.13;5004832;28;20071;-65
2021/06/26 05:24:52;;;;;;;17.50;4.45;;;;;;;36.19;33.36;100775.03;4987566;28;20054;-65
2021/06/26 05:27:20;;;;;;;17.52;4.40;;;;;;;36.35;33.13;100777.25;5009737;28;20053;-65
2021/06/26 05:29:48;;;;;;;12.52;4.18;;;;;;;36.52;32.75;100775.69;5012817;28;20037;-65
2021/06/26 05:32:16;;;;;;;17.35;4.43;;;;;;;36.76;32.97;100772.56;5005057;28;20026;-66
2021/06/26 05:34:43;;;;;;;13.80;4.20;;;;;;;36.81;32.47;100784.88;5023639;28;20061;-65
2021/06/26 05:37:11;;;;;;;13.18;4.30;;;;;;;36.90;32.01;100789.50;5023208;28;20647;-65
2021/06/26 05:39:39;;;;;;;11.45;4.00;;;;;;;36.94;31.71;100787.34;5025692;28;20563;-65
2021/06/26 05:42:08;;;;;;;10.77;5.07;;;;;;;37.14;31.66;100782.72;5025708;28;20437;-65
2021/06/26 05:44:36;;;;;;;14.30;5.22;;;;;;;37.40;31.37;100787.47;5024879;28;20389;-65
2021/06/26 05:47:03;;;;;;;12.73;4.22;;;;;;;37.60;30.88;100782.81;5023419;28;20064;-66
2021/06/26 05:49:31;;;;;;;14.10;4.68;;;;;;;37.89;30.50;100789.06;5023995;28;20125;-65
2021/06/26 05:52:01;;;;;;;10.57;3.70;;;;;;;38.07;30.37;100791.06;5023012;28;21634;-65
2021/06/26 05:54:28;;;;;;;12.30;4.38;;;;;;;38.10;30.00;100785.25;5025283;28;20378;-65
2021/06/26 05:56:56;;;;;;;10.27;4.15;;;;;;;38.06;29.88;100787.44;5023114;28;20052;-68
2021/06/26 05:59:25;;;;;;;10.77;4.82;;;;;;;38.12;29.75;100791.47;5024489;28;20124;-65
2021/06/26 06:01:53;;;;;;;14.68;4.00;;;;;;;38.20;29.99;100789.66;5023652;28;20149;-65
2021/06/26 06:15:45;;;;;;;11.70;4.45;;;;;;;39.44;27.47;100781.50;5010412;27;20612;-63
2021/06/26 06:18:15;;;;;;;13.82;5.30;;;;;;;39.37;27.59;100780.41;5008803;28;20072;-62
2021/06/26 06:20:42;;;;;;;13.90;4.22;;;;;;;39.29;27.94;100782.22;5008562;28;20052;-63
2021/06/26 06:23:10;;;;;;;13.38;4.50;;;;;;;39.31;28.00;100791.22;5007976;28;20045;-63
2021/06/26 06:25:37;;;;;;;16.70;4.63;;;;;;;39.34;27.77;100786.22;5007677;28;20532;-63
2021/06/26 06:28:06;;;;;;;16.35;4.72;;;;;;;39.28;27.81;100778.56;5008045;28;20056;-63
2021/06/26 06:30:35;;;;;;;12.88;4.53;;;;;;;39.35;27.74;100776.03;5007634;28;20046;-63
2021/06/26 06:33:05;;;;;;;11.30;4.90;;;;;;;39.62;27.92;100784.22;5007690;28;20529;-63
2021/06/26 06:35:34;;;;;;;14.63;4.25;;;;;;;39.62;27.49;100777.81;5007581;28;20091;-64
2021/06/26 06:38:03;;;;;;;22.52;5.82;;;;;;;39.61;27.35;100782.47;5008797;28;20060;-63
2021/06/26 06:40:31;;;;;;;11.50;4.82;;;;;;;39.46;27.16;100784.09;5006796;28;20053;-63
2021/06/26 06:42:59;;;;;;;13.77;4.43;;;;;;;39.53;27.25;100784.31;5008097;28;20149;-63
2021/06/26 06:45:27;;;;;;;13.32;4.45;;;;;;;39.56;27.23;100790.38;5008553;28;20160;-63
2021/06/26 06:47:54;;;;;;;10.18;3.97;;;;;;;39.64;27.48;100786.81;5007779;28;20080;-64
2021/06/26 06:50:24;;;;;;;11.13;3.60;;;;;;;39.64;27.33;100792.34;5008070;28;20208;-63
2021/06/26 06:52:52;;;;;;;12.98;3.90;;;;;;;39.66;27.11;100787.50;5008237;28;20072;-63
2021/06/26 06:55:19;;;;;;;15.15;4.25;;;;;;;39.58;27.53;100793.00;5008578;28;20045;-63
2021/06/26 06:57:46;;;;;;;12.60;4.47;;;;;;;39.69;27.53;100779.75;5009500;28;20181;-63
2021/06/26 07:00:15;;;;;;;12.00;3.80;;;;;;;39.73;27.12;100780.28;5009116;28;20073;-63
2021/06/26 07:02:43;;;;;;;12.85;4.60;;;;;;;39.65;27.29;100783.88;5008329;28;20037;-63
2021/06/26 07:05:12;;;;;;;10.90;3.90;;;;;;;39.66;27.17;100781.97;5007931;28;20045;-63
2021/06/26 07:07:41;;;;;;;14.57;3.92;;;;;;;39.80;27.13;100781.41;5006128;28;20048;-64
2021/06/26 07:10:10;;;;;;;13.63;3.97;;;;;;;39.84;26.98;100778.13;5006566;28;20061;-63
2021/06/26 07:12:37;;;;;;;11.50;3.83;;;;;;;39.65;27.16;100781.09;5008912;28;20754;-62
2021/06/26 07:15:06;;;;;;;15.63;4.22;;;;;;;39.54;27.18;100775.84;5003140;28;20049;-62
2021/06/26 07:17:33;;;;;;;10.82;4.00;;;;;;;39.51;27.17;100783.63;4994960;28;20188;-63
2021/06/26 07:20:01;;;;;;;9.05;4.15;;;;;;;39.45;27.25;100768.56;4993425;28;20129;-63
2021/06/26 07:22:28;;;;;;;13.10;3.78;;;;;;;39.57;27.04;100772.78;4994583;28;20083;-63
2021/06/26 07:24:58;;;;;;;14.82;4.57;;;;;;;39.57;26.50;100771.91;4993626;28;20053;-64
2021/06/26 07:27:25;;;;;;;13.35;4.30;;;;;;;39.33;26.52;100767.91;4994309;28;20107;-63
2021/06/26 07:29:53;;;;;;;8.13;3.22;;;;;;;39.26;26.71;100766.81;4994580;28;20076;-63
2021/06/26 07:32:21;;;;;;;13.38;4.32;;;;;;;39.27;26.79;100757.50;5012975;28;20649;-63
2021/06/26 07:34:48;;;;;;;11.77;3.47;;;;;;;39.21;26.70;100763.66;5012854;28;20041;-63
2021/06/26 07:37:16;;;;;;;9.35;3.40;;;;;;;39.13;26.81;100769.13;5012789;28;20148;-63
2021/06/26 07:39:44;;;;;;;6.43;3.63;;;;;;;39.23;27.17;100761.63;5012487;28;20140;-63
2021/06/26 07:42:14;;;;;;;16.30;3.72;;;;;;;39.28;26.88;100758.38;5014229;28;20045;-63
2021/06/26 07:44:42;;;;;;;13.00;4.80;;;;;;;39.12;27.39;100767.41;5012407;28;20045;-63
2021/06/26 07:47:09;;;;;;;11.65;3.38;;;;;;;39.10;27.27;100760.31;5013594;28;20059;-63
2021/06/26 07:49:36;;;;;;;11.73;4.03;;;;;;;39.11;27.08;100764.81;5017345;28;20037;-63
2021/06/26 07:52:05;;;;;;;16.13;3.92;;;;;;;39.19;26.82;100754.66;5017196;28;20055;-63
2021/06/26 07:54:33;;;;;;;11.95;4.50;;;;;;;39.27;26.89;100760.25;5017808;28;20128;-63
2021/06/26 07:57:01;;;;;;;14.25;4.70;;;;;;;39.56;26.85;100764.63;5016653;28;20526;-63
2021/06/26 07:59:30;;;;;;;10.68;4.50;;;;;;;39.75;26.66;100761.63;5016398;28;20073;-62
2021/06/26 08:01:57;;;;;;;13.13;3.92;;;;;;;39.74;26.62;100759.91;5016396;28;20052;-63
2021/06/26 08:04:25;;;;;;;13.95;4.32;;;;;;;39.76;26.42;100755.94;5017503;28;20049;-63
2021/06/26 08:06:53;;;;;;;11.77;4.32;;;;;;;39.81;26.48;100763.78;5016805;28;20745;-63
2021/06/26 08:09:22;;;;;;;14.63;4.47;;;;;;;39.76;26.38;100760.59;4989190;28;20049;-63
2021/06/26 08:11:50;;;;;;;12.70;4.43;;;;;;;39.63;26.83;100752.75;4988532;28;20087;-63
2021/06/26 08:14:19;;;;;;;10.73;3.53;;;;;;;39.78;26.30;100753.84;4988496;28;20060;-62
2021/06/26 08:16:48;;;;;;;13.50;4.25;;;;;;;39.62;26.34;100763.97;4989001;28;20049;-62
2021/06/26 08:19:16;;;;;;;13.07;4.50;;;;;;;39.68;26.12;100752.25;4988767;28;20082;-62
2021/06/26 08:21:46;;;;;;;11.15;3.88;;;;;;;39.74;26.22;100757.13;4989177;28;20057;-63
2021/06/26 08:24:13;;;;;;;13.50;4.88;;;;;;;39.58;26.38;100746.00;4988503;28;20046;-63
2021/06/26 08:26:41;;;;;;;13.70;4.03;;;;;;;39.84;26.05;100756.00;4987069;28;20042;-63
2021/06/26 08:29:09;;;;;;;11.27;4.05;;;;;;;39.93;25.60;100759.69;4990774;28;20037;-63
2021/06/26 08:31:36;;;;;;;16.25;3.95;;;;;;;40.12;25.76;100747.47;4996977;28;20168;-62
2021/06/26 08:34:05;;;;;;;9.52;3.25;;;;;;;40.35;25.34;100758.84;4997001;28;20552;-63
2021/06/26 08:36:33;;;;;;;8.32;3.47;;;;;;;40.53;25.11;100748.50;4997161;28;20172;-63
2021/06/26 08:39:01;;;;;;;11.27;4.07;;;;;;;40.51;25.06;100742.25;4997429;28;20123;-63
2021/06/26 08:41:31;;;;;;;12.52;4.07;;;;;;;40.63;24.86;100756.66;4996682;28;20856;-63
2021/06/26 08:44:00;;;;;;;14.25;4.65;;;;;;;40.65;24.86;100754.56;4996957;28;20057;-63
2021/06/26 08:46:32;;;;;;;13.75;3.78;;;;;;;40.72;24.55;100741.78;4997269;28;20053;-63
2021/06/26 08:48:59;;;;;;;13.55;4.15;;;;;;;40.54;24.34;100751.09;4996976;28;20050;-63
2021/06/26 08:51:29;;;;;;;13.82;3.80;;;;;;;40.67;24.23;100745.09;4996789;28;20037;-63
2021/06/26 08:53:56;;;;;;;14.13;3.83;;;;;;;40.77;24.19;100744.91;4996898;28;20073;-64
2021/06/26 08:56:24;;;;;;;12.55;3.88;;;;;;;40.81;24.03;100741.63;4997160;28;20045;-63
2021/06/26 08:58:51;;;;;;;14.23;3.80;;;;;;;40.81;23.97;100741.63;5017241;28;20041;-63
2021/06/26 09:01:20;;;;;;;9.82;3.90;;;;;;;40.74;24.08;100742.50;5016105;28;20053;-63
2021/06/26 09:03:48;;;;;;;11.90;3.92;;;;;;;40.86;24.20;100738.34;5016549;28;20053;-63
2021/06/26 09:06:15;;;;;;;13.95;5.07;;;;;;;40.88;23.93;100741.81;5016930;28;20060;-63
2021/06/26 09:08:51;;;;;;;12.63;3.97;;;;;;;40.96;23.63;100739.06;5016740;28;20168;-63
2021/06/26 09:11:19;;;;;;;11.60;3.80;;;;;;;40.98;23.70;100743.38;5015129;28;21525;-62
2021/06/26 09:13:47;;;;;;;10.88;3.58;;;;;;;41.10;23.80;100743.03;5016268;28;20050;-63
2021/06/26 09:16:16;;;;;;;12.25;3.95;;;;;;;41.14;23.74;100734.22;5016210;28;20175;-63
2021/06/26 09:18:46;;;;;;;12.50;3.45;;;;;;;41.28;23.84;100735.41;5016858;28;21631;-62
2021/06/26 09:21:20;;;;;;;9.18;3.65;;;;;;;41.36;23.76;100732.59;5016741;28;20075;-63
2021/06/26 09:24:01;;;;;;;10.40;3.65;;;;;;;41.43;23.61;100727.22;5016276;28;20134;-62
2021/06/26 09:26:29;;;;;;;18.73;4.20;;;;;;;41.36;23.73;100718.75;5016367;28;20045;-63
2021/06/26 09:28:57;;;;;;;11.30;3.53;;;;;;;41.36;24.09;100724.28;5016237;28;20128;-63
2021/06/26 09:31:25;;;;;;;10.80;3.75;;;;;;;41.39;23.52;100733.13;5016188;28;20125;-63
2021/06/26 09:34:00;;;;;;;10.30;4.13;;;;;;;41.38;23.42;100727.75;5016473;28;21498;-63
2021/06/26 09:36:31;;;;;;;9.90;3.60;;;;;;;41.34;23.56;100718.06;5016053;28;20049;-62
2021/06/26 09:39:02;;;;;;;14.95;3.90;;;;;;;41.46;23.39;100722.19;5016279;28;20178;-63
2021/06/26 09:41:30;;;;;;;11.25;4.35;;;;;;;41.46;23.05;100707.47;5016250;28;20072;-63
2021/06/26 09:44:09;;;;;;;9.68;3.97;;;;;;;41.15;23.29;100716.56;5015621;28;20100;-62
2021/06/26 09:46:46;;;;;;;12.73;4.30;;;;;;;41.13;23.54;100707.53;5016458;28;20049;-63
2021/06/26 09:49:14;;;;;;;12.80;3.70;;;;;;;40.99;23.67;100706.31;5015874;28;20038;-64
2021/06/26 09:51:42;;;;;;;11.07;4.35;;;;;;;41.11;23.56;100701.28;5015131;28;20045;-64
2021/06/26 09:54:11;;;;;;;13.38;3.63;;;;;;;41.12;23.52;100704.94;5015829;28;20045;-64
2021/06/26 09:56:41;;;;;;;13.32;4.57;;;;;;;40.80;23.59;100692.81;5016193;28;20069;-64
2021/06/26 09:59:09;;;;;;;12.73;4.00;;;;;;;40.42;23.94;100697.09;5015744;28;20044;-64
2021/06/26 10:01:39;;;;;;;13.88;4.00;;;;;;;40.55;23.96;100705.75;5016072;28;20037;-63
2021/06/26 10:04:06;;;;;;;10.88;3.50;;;;;;;40.69;23.82;100701.47;5015516;28;20667;-64
2021/06/26 10:06:35;;;;;;;16.13;4.20;;;;;;;40.70;23.63;100694.88;5015728;28;20041;-64
2021/06/26 10:09:04;;;;;;;10.27;3.75;;;;;;;40.55;23.96;100691.91;5015803;28;20046;-64
2021/06/26 10:11:35;;;;;;;12.65;3.17;;;;;;;40.60;24.01;100683.09;5015565;28;20140;-63
2021/06/26 10:14:06;;;;;;;14.73;4.28;;;;;;;40.63;24.17;100680.81;5015461;28;20057;-64
2021/06/26 10:16:36;;;;;;;14.07;4.70;;;;;;;40.56;24.53;100679.81;5015390;28;20037;-64
2021/06/26 10:19:05;;;;;;;13.70;5.03;;;;;;;40.47;24.71;100685.50;5015114;28;20156;-64
2021/06/26 10:21:34;;;;;;;9.00;3.55;;;;;;;40.44;24.69;100677.50;5015208;28;20048;-63
2021/06/26 10:24:06;;;;;;;14.75;4.97;;;;;;;40.34;24.45;100671.28;5015672;28;20137;-64
2021/06/26 10:26:39;;;;;;;11.30;3.70;;;;;;;40.24;24.68;100670.59;5015723;28;20080;-64
2021/06/26 10:29:07;;;;;;;;;;;;;;;40.15;24.67;100666.91;5016474;28;20041;-64
2021/06/26 10:31:36;;;;;;;15.05;4.68;;;;;;;40.14;24.46;100679.00;5015457;28;19936;-64
2021/06/26 10:34:12;;;;;;;14.70;4.75;;;;;;;40.08;24.42;100674.16;5014236;28;20065;-63
2021/06/26 10:36:40;;;;;;;20.42;4.85;;;;;;;40.06;24.02;100678.97;5015249;28;20046;-64
2021/06/26 10:39:20;;;;;;;10.88;3.70;;;;;;;39.93;24.46;100660.09;5015386;28;20532;-64
2021/06/26 10:42:00;;;;;;;13.35;4.22;;;;;;;39.88;24.43;100661.63;5015470;28;20080;-65
2021/06/26 10:44:28;;;;;;;15.50;4.00;;;;;;;39.83;24.78;100671.31;5014850;28;20059;-63
2021/06/26 10:46:57;;;;;;;12.13;4.47;;;;;;;39.93;24.61;100653.69;5013187;28;21572;-64
2021/06/26 10:49:31;;;;;;;17.08;3.95;;;;;;;39.91;24.14;100659.38;5015958;28;20044;-65
2021/06/26 10:52:07;;;;;;;;;;;;;;;39.85;24.14;100665.59;5002312;28;20072;-64
2021/06/26 10:54:35;;;;;;;7.72;3.78;;;;;;;40.07;24.44;100661.34;4999171;28;20063;-63
2021/06/26 10:57:08;;;;;;;14.73;4.32;;;;;;;40.33;24.08;100664.00;4998847;28;20415;-63
2021/06/26 10:59:35;;;;;;;12.27;4.35;;;;;;;40.48;23.87;100654.88;4999400;28;20044;-64
2021/06/26 11:02:04;;;;;;;11.00;3.92;;;;;;;40.56;23.77;100656.78;4998151;28;20046;-64
2021/06/26 11:04:35;;;;;;;12.32;4.28;;;;;;;40.63;23.63;100651.41;4999431;28;20053;-63
2021/06/26 11:07:08;;;;;;;12.38;3.60;;;;;;;40.91;23.59;100659.22;4996158;28;20049;-63
2021/06/26 11:09:39;;;;;;;8.80;3.60;;;;;;;41.05;23.74;100651.22;4998274;28;20042;-63
2021/06/26 11:12:15;;;;;;;14.15;4.20;;;;;;;41.30;23.54;100647.38;4998301;28;20056;-63
2021/06/26 11:14:55;;;;;;;10.38;3.70;;;;;;;41.52;22.80;100649.41;4995677;28;20779;-63
2021/06/26 11:17:38;;;;;;;15.65;3.83;;;;;;;41.59;22.30;100639.34;4996287;28;20069;-64
2021/06/26 11:20:10;;;;;;;15.52;3.90;;;;;;;41.69;22.24;100639.97;4998875;28;20053;-63
2021/06/26 11:22:38;;;;;;;17.20;4.65;;;;;;;41.80;22.25;100635.09;4997558;28;20053;-64
2021/06/26 11:25:10;;;;;;;11.60;3.80;;;;;;;41.85;21.88;100627.94;4998490;28;20045;-63
2021/06/26 11:27:42;;;;;;;12.82;3.83;;;;;;;42.01;21.36;100632.56;4997831;28;20078;-67
2021/06/26 11:30:12;;;;;;;11.07;3.95;;;;;;;42.15;21.57;100634.53;4998039;28;20044;-63
2021/06/26 11:32:40;;;;;;;10.65;3.65;;;;;;;42.12;21.50;100627.47;4998702;28;20100;-64
2021/06/26 11:35:10;;;;;;;13.10;4.00;;;;;;;42.13;21.10;100631.97;4997605;28;20041;-63
2021/06/26 11:37:40;;;;;;;14.25;3.67;;;;;;;42.22;21.45;100624.41;4997888;28;20849;-64